PWSweather.com
Personal Weather Stations
Station Observations
KTXROWLE6
Ravens Nest, Rowlett, TX 75089

Ravens NestRowlett, TX 75089

Lat: 32.93105, Lon: -96.57368

Elevation: 556

Station Type: Davis Vantage Pro2 6152

http://rowlett.ws

Latest ConditionsUpdated 11:55:00 AM CDT Sunday, Sep 23, 2018
Currently Today's Max Today's Min Today's Average
Temperature 69.5°F20.8°C 69.8°F21.0°C 67.0°F19.4°C 68.1°F20.1°C
Dew Point 67.7°F19.8°C 67.9°F19.9°C 66.1°F18.9°C 66.8°F19.3°C
Winds 2.3 mph NE3.7 kmh NE 2.3 mph -3.7 kmh - - 1.2 mph 1.9 kmh
Wind Gusts 7.0 mph11.3 kmh 7.0 mph11.3 kmh - -
Humidity 94% 97% 93% 96%
Pressure 29.95 in1014.2 mb 29.96 in1014.6 mb 29.88 in1011.9 mb -
Precipitation - 0.07 in1.8 mm - -
Hour Temp Dew Point Humidity Winds Wind Gusts Pressure Precip Precip Rate Daily Precip Total
11:55 AM 69.5°F20.8°C 67.7°F19.8°C 94% 2.3 mph NE3.7 kmh NE 7.0 mph11.3 kmh 29.95 in1014.2 mb 0.00 in0.0 mm 0.00 in0.0 mm 0.07 in1.8 mm
11:50 AM 69.6°F20.9°C 67.8°F19.9°C 94% 1.4 mph NE2.3 kmh NE 4.0 mph6.4 kmh 29.95 in1014.2 mb 0.00 in0.0 mm 0.00 in0.0 mm 0.07 in1.8 mm
11:45 AM 69.4°F20.8°C 67.9°F19.9°C 95% 0.8 mph NE1.3 kmh NE 4.0 mph6.4 kmh 29.96 in1014.6 mb 0.00 in0.0 mm 0.00 in0.0 mm 0.07 in1.8 mm
11:40 AM 69.2°F20.7°C 67.7°F19.8°C 95% 0.8 mph NNE1.3 kmh NNE 3.0 mph4.8 kmh 29.96 in1014.6 mb 0.00 in0.0 mm 0.00 in0.0 mm 0.07 in1.8 mm
11:35 AM 68.9°F20.5°C 67.4°F19.7°C 95% 1.1 mph NE1.8 kmh NE 3.0 mph4.8 kmh 29.96 in1014.6 mb 0.00 in0.0 mm 0.00 in0.0 mm 0.07 in1.8 mm
11:30 AM 68.7°F20.4°C 67.2°F19.6°C 95% 0.6 mph NE1.0 kmh NE 5.0 mph8.0 kmh 29.96 in1014.6 mb 0.00 in0.0 mm 0.00 in0.0 mm 0.07 in1.8 mm
11:25 AM 68.4°F20.2°C 67.2°F19.6°C 96% 1.3 mph ENE2.1 kmh ENE 5.0 mph8.0 kmh 29.96 in1014.6 mb 0.00 in0.0 mm 0.00 in0.0 mm 0.07 in1.8 mm
11:20 AM 68.3°F20.2°C 66.8°F19.3°C 95% 1.7 mph ENE2.7 kmh ENE 5.0 mph8.0 kmh 29.96 in1014.6 mb 0.00 in0.0 mm 0.00 in0.0 mm 0.07 in1.8 mm
11:15 AM 68.5°F20.3°C 67.0°F19.4°C 95% 1.1 mph NE1.8 kmh NE 4.0 mph6.4 kmh 29.96 in1014.6 mb 0.00 in0.0 mm 0.00 in0.0 mm 0.07 in1.8 mm
11:10 AM 68.4°F20.2°C 66.9°F19.4°C 95% 1.3 mph ENE2.1 kmh ENE 5.0 mph8.0 kmh 29.96 in1014.6 mb 0.00 in0.0 mm 0.00 in0.0 mm 0.07 in1.8 mm
11:05 AM 68.3°F20.2°C 66.8°F19.3°C 95% 2.2 mph ENE3.5 kmh ENE 5.0 mph8.0 kmh 29.96 in1014.6 mb 0.00 in0.0 mm 0.00 in0.0 mm 0.07 in1.8 mm
11:00 AM 68.5°F20.3°C 67.0°F19.4°C 95% 1.3 mph NE2.1 kmh NE 5.0 mph8.0 kmh 29.95 in1014.2 mb 0.00 in0.0 mm 0.00 in0.0 mm 0.07 in1.8 mm
10:55 AM 68.4°F20.2°C 66.9°F19.4°C 95% 0.9 mph ENE1.4 kmh ENE 4.0 mph6.4 kmh 29.95 in1014.2 mb 0.00 in0.0 mm 0.00 in0.0 mm 0.07 in1.8 mm
10:50 AM 68.3°F20.2°C 66.8°F19.3°C 95% 1.6 mph ENE2.6 kmh ENE 4.0 mph6.4 kmh 29.96 in1014.6 mb 0.00 in0.0 mm 0.00 in0.0 mm 0.07 in1.8 mm
10:45 AM 68.4°F20.2°C 66.9°F19.4°C 95% 1.3 mph ENE2.1 kmh ENE 4.0 mph6.4 kmh 29.95 in1014.2 mb 0.00 in0.0 mm 0.00 in0.0 mm 0.07 in1.8 mm
10:40 AM 68.5°F20.3°C 67.0°F19.4°C 95% 1.3 mph NE2.1 kmh NE 4.0 mph6.4 kmh 29.95 in1014.2 mb 0.00 in0.0 mm 0.00 in0.0 mm 0.07 in1.8 mm
10:35 AM 68.5°F20.3°C 67.0°F19.4°C 95% 0.9 mph ENE1.4 kmh ENE 4.0 mph6.4 kmh 29.95 in1014.2 mb 0.00 in0.0 mm 0.00 in0.0 mm 0.07 in1.8 mm
10:30 AM 68.6°F20.3°C 67.1°F19.5°C 95% 0.7 mph NE1.1 kmh NE 3.0 mph4.8 kmh 29.95 in1014.2 mb 0.00 in0.0 mm 0.00 in0.0 mm 0.07 in1.8 mm
10:25 AM 68.4°F20.2°C 66.9°F19.4°C 95% 1.1 mph NE1.8 kmh NE 3.0 mph4.8 kmh 29.95 in1014.2 mb 0.00 in0.0 mm 0.00 in0.0 mm 0.07 in1.8 mm
10:20 AM 68.4°F20.2°C 66.9°F19.4°C 95% 1.2 mph NE1.9 kmh NE 5.0 mph8.0 kmh 29.95 in1014.2 mb 0.00 in0.0 mm 0.00 in0.0 mm 0.07 in1.8 mm
10:15 AM 68.2°F20.1°C 66.7°F19.3°C 95% 1.2 mph ENE1.9 kmh ENE 5.0 mph8.0 kmh 29.95 in1014.2 mb 0.00 in0.0 mm 0.00 in0.0 mm 0.07 in1.8 mm
10:10 AM 68.3°F20.2°C 66.8°F19.3°C 95% 1.1 mph ENE1.8 kmh ENE 3.0 mph4.8 kmh 29.95 in1014.2 mb 0.00 in0.0 mm 0.00 in0.0 mm 0.07 in1.8 mm
10:05 AM 68.3°F20.2°C 66.8°F19.3°C 95% 1.3 mph NE2.1 kmh NE 3.0 mph4.8 kmh 29.95 in1014.2 mb 0.00 in0.0 mm 0.00 in0.0 mm 0.07 in1.8 mm
10:00 AM 68.3°F20.2°C 66.8°F19.3°C 95% 1.1 mph NE1.8 kmh NE 5.0 mph8.0 kmh 29.94 in1013.9 mb 0.00 in0.0 mm 0.00 in0.0 mm 0.07 in1.8 mm
09:55 AM 68.3°F20.2°C 67.1°F19.5°C 96% 1.8 mph NE2.9 kmh NE 5.0 mph8.0 kmh 29.94 in1013.9 mb 0.00 in0.0 mm 0.00 in0.0 mm 0.07 in1.8 mm
09:50 AM 68.3°F20.2°C 67.1°F19.5°C 96% 0.9 mph ENE1.4 kmh ENE 4.0 mph6.4 kmh 29.94 in1013.9 mb 0.00 in0.0 mm 0.00 in0.0 mm 0.07 in1.8 mm
09:45 AM 68.4°F20.2°C 67.2°F19.6°C 96% 1.0 mph ENE1.6 kmh ENE 3.0 mph4.8 kmh 29.94 in1013.9 mb 0.00 in0.0 mm 0.00 in0.0 mm 0.07 in1.8 mm
09:40 AM 68.1°F20.1°C 66.9°F19.4°C 96% 1.4 mph NE2.3 kmh NE 4.0 mph6.4 kmh 29.93 in1013.5 mb 0.00 in0.0 mm 0.00 in0.0 mm 0.07 in1.8 mm
09:35 AM 68.1°F20.1°C 66.9°F19.4°C 96% 1.0 mph ENE1.6 kmh ENE 5.0 mph8.0 kmh 29.93 in1013.5 mb 0.00 in0.0 mm 0.00 in0.0 mm 0.07 in1.8 mm
09:30 AM 67.9°F19.9°C 66.7°F19.3°C 96% 1.5 mph E2.4 kmh E 5.0 mph8.0 kmh 29.93 in1013.5 mb 0.00 in0.0 mm 0.00 in0.0 mm 0.07 in1.8 mm
09:25 AM 67.9°F19.9°C 66.7°F19.3°C 96% 1.7 mph ENE2.7 kmh ENE 5.0 mph8.0 kmh 29.93 in1013.5 mb 0.00 in0.0 mm 0.00 in0.0 mm 0.07 in1.8 mm
09:20 AM 67.9°F19.9°C 66.7°F19.3°C 96% 1.2 mph NE1.9 kmh NE 4.0 mph6.4 kmh 29.93 in1013.5 mb 0.00 in0.0 mm 0.00 in0.0 mm 0.07 in1.8 mm
09:15 AM 67.9°F19.9°C 66.7°F19.3°C 96% 1.5 mph ENE2.4 kmh ENE 5.0 mph8.0 kmh 29.93 in1013.5 mb 0.00 in0.0 mm 0.00 in0.0 mm 0.07 in1.8 mm
09:10 AM 67.9°F19.9°C 66.7°F19.3°C 96% 1.4 mph ENE2.3 kmh ENE 5.0 mph8.0 kmh 29.93 in1013.5 mb 0.00 in0.0 mm 0.00 in0.0 mm 0.07 in1.8 mm
09:05 AM 67.7°F19.8°C 66.5°F19.2°C 96% 1.4 mph NE2.3 kmh NE 4.0 mph6.4 kmh 29.92 in1013.2 mb 0.00 in0.0 mm 0.00 in0.0 mm 0.07 in1.8 mm
09:00 AM 67.6°F19.8°C 66.4°F19.1°C 96% 1.4 mph ENE2.3 kmh ENE 4.0 mph6.4 kmh 29.92 in1013.2 mb 0.00 in0.0 mm 0.00 in0.0 mm 0.07 in1.8 mm
08:55 AM 67.7°F19.8°C 66.8°F19.3°C 97% 0.7 mph NE1.1 kmh NE 3.0 mph4.8 kmh 29.92 in1013.2 mb 0.00 in0.0 mm 0.00 in0.0 mm 0.07 in1.8 mm
08:50 AM 67.4°F19.7°C 66.2°F19.0°C 96% 1.3 mph ENE2.1 kmh ENE 4.0 mph6.4 kmh 29.92 in1013.2 mb 0.00 in0.0 mm 0.00 in0.0 mm 0.07 in1.8 mm
08:45 AM 67.3°F19.6°C 66.1°F18.9°C 96% 1.5 mph NE2.4 kmh NE 5.0 mph8.0 kmh 29.92 in1013.2 mb 0.00 in0.0 mm 0.00 in0.0 mm 0.07 in1.8 mm
08:40 AM 67.3°F19.6°C 66.1°F18.9°C 96% 2.0 mph ENE3.2 kmh ENE 5.0 mph8.0 kmh 29.92 in1013.2 mb 0.00 in0.0 mm 0.00 in0.0 mm 0.07 in1.8 mm
08:35 AM 67.4°F19.7°C 66.2°F19.0°C 96% 1.7 mph NE2.7 kmh NE 5.0 mph8.0 kmh 29.92 in1013.2 mb 0.00 in0.0 mm 0.00 in0.0 mm 0.07 in1.8 mm
08:30 AM 67.4°F19.7°C 66.2°F19.0°C 96% 1.4 mph NE2.3 kmh NE 4.0 mph6.4 kmh 29.92 in1013.2 mb 0.00 in0.0 mm 0.00 in0.0 mm 0.07 in1.8 mm
08:25 AM 67.5°F19.7°C 66.3°F19.1°C 96% 0.9 mph ENE1.4 kmh ENE 3.0 mph4.8 kmh 29.92 in1013.2 mb 0.00 in0.0 mm 0.00 in0.0 mm 0.07 in1.8 mm
08:20 AM 67.5°F19.7°C 66.3°F19.1°C 96% 1.3 mph NE2.1 kmh NE 5.0 mph8.0 kmh 29.92 in1013.2 mb 0.00 in0.0 mm 0.00 in0.0 mm 0.07 in1.8 mm
08:15 AM 67.4°F19.7°C 66.2°F19.0°C 96% 1.5 mph NE2.4 kmh NE 5.0 mph8.0 kmh 29.92 in1013.2 mb 0.00 in0.0 mm 0.00 in0.0 mm 0.07 in1.8 mm
08:10 AM 67.4°F19.7°C 66.2°F19.0°C 96% 0.6 mph ENE1.0 kmh ENE 3.0 mph4.8 kmh 29.92 in1013.2 mb 0.00 in0.0 mm 0.00 in0.0 mm 0.07 in1.8 mm
08:05 AM 67.4°F19.7°C 66.2°F19.0°C 96% 0.4 mph NE0.6 kmh NE 3.0 mph4.8 kmh 29.92 in1013.2 mb 0.00 in0.0 mm 0.00 in0.0 mm 0.07 in1.8 mm
08:00 AM 67.3°F19.6°C 66.4°F19.1°C 97% 0.6 mph NE1.0 kmh NE 3.0 mph4.8 kmh 29.92 in1013.2 mb 0.00 in0.0 mm 0.00 in0.0 mm 0.07 in1.8 mm
07:55 AM 67.2°F19.6°C 66.3°F19.1°C 97% 0.6 mph NE1.0 kmh NE 3.0 mph4.8 kmh 29.92 in1013.2 mb 0.01 in0.3 mm 0.00 in0.0 mm 0.07 in1.8 mm
07:50 AM 67.1°F19.5°C 66.2°F19.0°C 97% 0.9 mph NE1.4 kmh NE 3.0 mph4.8 kmh 29.92 in1013.2 mb 0.01 in0.3 mm 0.00 in0.0 mm 0.07 in1.8 mm
07:45 AM 67.0°F19.4°C 66.1°F18.9°C 97% 0.9 mph ENE1.4 kmh ENE 3.0 mph4.8 kmh 29.91 in1012.9 mb 0.01 in0.3 mm 0.00 in0.0 mm 0.07 in1.8 mm
07:40 AM 67.1°F19.5°C 66.2°F19.0°C 97% 1.3 mph ENE2.1 kmh ENE 4.0 mph6.4 kmh 29.91 in1012.9 mb 0.01 in0.3 mm 0.00 in0.0 mm 0.07 in1.8 mm
07:35 AM 67.1°F19.5°C 66.2°F19.0°C 97% 1.1 mph ENE1.8 kmh ENE 4.0 mph6.4 kmh 29.91 in1012.9 mb 0.01 in0.3 mm 0.00 in0.0 mm 0.07 in1.8 mm
07:30 AM 67.1°F19.5°C 66.2°F19.0°C 97% 0.9 mph NE1.4 kmh NE 3.0 mph4.8 kmh 29.91 in1012.9 mb 0.01 in0.3 mm 0.00 in0.0 mm 0.07 in1.8 mm
07:25 AM 67.0°F19.4°C 66.1°F18.9°C 97% 1.2 mph NE1.9 kmh NE 3.0 mph4.8 kmh 29.91 in1012.9 mb 0.01 in0.3 mm 0.00 in0.0 mm 0.07 in1.8 mm
07:20 AM 67.1°F19.5°C 66.2°F19.0°C 97% 1.3 mph NE2.1 kmh NE 3.0 mph4.8 kmh 29.91 in1012.9 mb 0.01 in0.3 mm 0.00 in0.0 mm 0.07 in1.8 mm
07:15 AM 67.2°F19.6°C 66.3°F19.1°C 97% 0.4 mph NE0.6 kmh NE 3.0 mph4.8 kmh 29.91 in1012.9 mb 0.01 in0.3 mm 0.00 in0.0 mm 0.07 in1.8 mm
07:10 AM 67.2°F19.6°C 66.3°F19.1°C 97% 0.9 mph NE1.4 kmh NE 4.0 mph6.4 kmh 29.90 in1012.5 mb 0.01 in0.3 mm 0.00 in0.0 mm 0.07 in1.8 mm
07:05 AM 67.1°F19.5°C 66.2°F19.0°C 97% 1.5 mph NE2.4 kmh NE 4.0 mph6.4 kmh 29.90 in1012.5 mb 0.01 in0.3 mm 0.00 in0.0 mm 0.07 in1.8 mm
07:00 AM 67.1°F19.5°C 66.2°F19.0°C 97% 1.0 mph NE1.6 kmh NE 3.0 mph4.8 kmh 29.90 in1012.5 mb 0.01 in0.3 mm 0.01 in0.3 mm 0.07 in1.8 mm
06:55 AM 67.2°F19.6°C 66.3°F19.1°C 97% 0.5 mph NE0.8 kmh NE 3.0 mph4.8 kmh 29.90 in1012.5 mb 0.00 in0.0 mm 0.00 in0.0 mm 0.06 in1.5 mm
06:50 AM 67.2°F19.6°C 66.3°F19.1°C 97% 1.2 mph NE1.9 kmh NE 3.0 mph4.8 kmh 29.90 in1012.5 mb 0.00 in0.0 mm 0.00 in0.0 mm 0.06 in1.5 mm
06:45 AM 67.3°F19.6°C 66.4°F19.1°C 97% 0.9 mph NE1.4 kmh NE 6.0 mph9.7 kmh 29.90 in1012.5 mb 0.00 in0.0 mm 0.00 in0.0 mm 0.06 in1.5 mm
06:40 AM 67.2°F19.6°C 66.3°F19.1°C 97% 1.2 mph NE1.9 kmh NE 6.0 mph9.7 kmh 29.90 in1012.5 mb 0.00 in0.0 mm 0.00 in0.0 mm 0.06 in1.5 mm
06:35 AM 67.2°F19.6°C 66.3°F19.1°C 97% 1.5 mph ENE2.4 kmh ENE 5.0 mph8.0 kmh 29.90 in1012.5 mb 0.00 in0.0 mm 0.00 in0.0 mm 0.06 in1.5 mm
06:30 AM 67.3°F19.6°C 66.4°F19.1°C 97% 0.9 mph ENE1.4 kmh ENE 3.0 mph4.8 kmh 29.90 in1012.5 mb 0.00 in0.0 mm 0.00 in0.0 mm 0.06 in1.5 mm
06:25 AM 67.4°F19.7°C 66.2°F19.0°C 96% 0.7 mph ENE1.1 kmh ENE 3.0 mph4.8 kmh 29.90 in1012.5 mb 0.00 in0.0 mm 0.00 in0.0 mm 0.06 in1.5 mm
06:20 AM 67.5°F19.7°C 66.3°F19.1°C 96% 0.4 mph ENE0.6 kmh ENE 3.0 mph4.8 kmh 29.89 in1012.2 mb 0.00 in0.0 mm 0.00 in0.0 mm 0.06 in1.5 mm
06:15 AM 67.4°F19.7°C 66.2°F19.0°C 96% 0.9 mph ENE1.4 kmh ENE 3.0 mph4.8 kmh 29.89 in1012.2 mb 0.00 in0.0 mm 0.00 in0.0 mm 0.06 in1.5 mm
06:10 AM 67.4°F19.7°C 66.2°F19.0°C 96% 0.9 mph E1.4 kmh E 3.0 mph4.8 kmh 29.89 in1012.2 mb 0.00 in0.0 mm 0.00 in0.0 mm 0.06 in1.5 mm
06:05 AM 67.4°F19.7°C 66.2°F19.0°C 96% 1.2 mph NE1.9 kmh NE 6.0 mph9.7 kmh 29.89 in1012.2 mb 0.00 in0.0 mm 0.00 in0.0 mm 0.06 in1.5 mm
06:00 AM 67.4°F19.7°C 66.2°F19.0°C 96% 1.4 mph E2.3 kmh E 6.0 mph9.7 kmh 29.89 in1012.2 mb 0.00 in0.0 mm 0.00 in0.0 mm 0.06 in1.5 mm
05:55 AM 67.5°F19.7°C 66.3°F19.1°C 96% 1.0 mph ENE1.6 kmh ENE 4.0 mph6.4 kmh 29.89 in1012.2 mb 0.00 in0.0 mm 0.00 in0.0 mm 0.06 in1.5 mm
05:50 AM 67.5°F19.7°C 66.3°F19.1°C 96% 1.0 mph ENE1.6 kmh ENE 4.0 mph6.4 kmh 29.89 in1012.2 mb 0.00 in0.0 mm 0.00 in0.0 mm 0.06 in1.5 mm
05:45 AM 67.5°F19.7°C 66.3°F19.1°C 96% 1.1 mph ENE1.8 kmh ENE 4.0 mph6.4 kmh 29.89 in1012.2 mb 0.00 in0.0 mm 0.00 in0.0 mm 0.06 in1.5 mm
05:40 AM 67.4°F19.7°C 66.2°F19.0°C 96% 1.7 mph NE2.7 kmh NE 5.0 mph8.0 kmh 29.89 in1012.2 mb 0.00 in0.0 mm 0.00 in0.0 mm 0.06 in1.5 mm
05:35 AM 67.5°F19.7°C 66.3°F19.1°C 96% 2.0 mph NE3.2 kmh NE 6.0 mph9.7 kmh 29.88 in1011.9 mb 0.00 in0.0 mm 0.00 in0.0 mm 0.06 in1.5 mm
05:30 AM 67.4°F19.7°C 66.2°F19.0°C 96% 2.0 mph ENE3.2 kmh ENE 6.0 mph9.7 kmh 29.88 in1011.9 mb 0.00 in0.0 mm 0.00 in0.0 mm 0.06 in1.5 mm
05:25 AM 67.5°F19.7°C 66.3°F19.1°C 96% 1.5 mph NE2.4 kmh NE 3.0 mph4.8 kmh 29.88 in1011.9 mb 0.00 in0.0 mm 0.00 in0.0 mm 0.06 in1.5 mm
05:20 AM 67.6°F19.8°C 66.4°F19.1°C 96% 1.7 mph ENE2.7 kmh ENE 4.0 mph6.4 kmh 29.88 in1011.9 mb 0.00 in0.0 mm 0.00 in0.0 mm 0.06 in1.5 mm
05:15 AM 67.6°F19.8°C 66.4°F19.1°C 96% 1.7 mph ENE2.7 kmh ENE 4.0 mph6.4 kmh 29.88 in1011.9 mb 0.00 in0.0 mm 0.00 in0.0 mm 0.06 in1.5 mm
05:10 AM 67.7°F19.8°C 66.8°F19.3°C 97% 1.3 mph NE2.1 kmh NE 5.0 mph8.0 kmh 29.89 in1012.2 mb 0.00 in0.0 mm 0.00 in0.0 mm 0.06 in1.5 mm
05:05 AM 67.7°F19.8°C 66.5°F19.2°C 96% 1.6 mph ENE2.6 kmh ENE 6.0 mph9.7 kmh 29.88 in1011.9 mb 0.00 in0.0 mm 0.00 in0.0 mm 0.06 in1.5 mm
05:00 AM 67.8°F19.9°C 66.6°F19.2°C 96% 1.6 mph ENE2.6 kmh ENE 6.0 mph9.7 kmh 29.88 in1011.9 mb 0.00 in0.0 mm 0.00 in0.0 mm 0.06 in1.5 mm
04:55 AM 68.0°F20.0°C 67.1°F19.5°C 97% 0.4 mph ENE0.6 kmh ENE 3.0 mph4.8 kmh 29.88 in1011.9 mb 0.00 in0.0 mm 0.00 in0.0 mm 0.06 in1.5 mm
04:50 AM 67.9°F19.9°C 66.7°F19.3°C 96% 1.0 mph ENE1.6 kmh ENE 3.0 mph4.8 kmh 29.88 in1011.9 mb 0.00 in0.0 mm 0.00 in0.0 mm 0.06 in1.5 mm
04:45 AM 67.9°F19.9°C 66.7°F19.3°C 96% 1.0 mph ESE1.6 kmh ESE 3.0 mph4.8 kmh 29.88 in1011.9 mb 0.00 in0.0 mm 0.00 in0.0 mm 0.06 in1.5 mm
04:40 AM 67.9°F19.9°C 66.7°F19.3°C 96% 0.8 mph E1.3 kmh E 4.0 mph6.4 kmh 29.88 in1011.9 mb 0.00 in0.0 mm 0.00 in0.0 mm 0.06 in1.5 mm
04:35 AM 67.9°F19.9°C 66.7°F19.3°C 96% 0.9 mph ENE1.4 kmh ENE 4.0 mph6.4 kmh 29.88 in1011.9 mb 0.00 in0.0 mm 0.00 in0.0 mm 0.06 in1.5 mm
04:30 AM 67.9°F19.9°C 66.7°F19.3°C 96% 1.0 mph E1.6 kmh E 3.0 mph4.8 kmh 29.88 in1011.9 mb 0.00 in0.0 mm 0.00 in0.0 mm 0.06 in1.5 mm
04:25 AM 68.0°F20.0°C 66.8°F19.3°C 96% 0.7 mph ENE1.1 kmh ENE 3.0 mph4.8 kmh 29.88 in1011.9 mb 0.00 in0.0 mm 0.00 in0.0 mm 0.06 in1.5 mm
04:20 AM 68.0°F20.0°C 66.8°F19.3°C 96% 0.7 mph E1.1 kmh E 3.0 mph4.8 kmh 29.88 in1011.9 mb 0.00 in0.0 mm 0.00 in0.0 mm 0.06 in1.5 mm
04:15 AM 67.9°F19.9°C 66.7°F19.3°C 96% 1.1 mph E1.8 kmh E 3.0 mph4.8 kmh 29.88 in1011.9 mb 0.00 in0.0 mm 0.00 in0.0 mm 0.06 in1.5 mm
04:10 AM 67.9°F19.9°C 66.7°F19.3°C 96% 0.9 mph E1.4 kmh E 3.0 mph4.8 kmh 29.89 in1012.2 mb 0.00 in0.0 mm 0.00 in0.0 mm 0.06 in1.5 mm
04:05 AM 67.8°F19.9°C 66.6°F19.2°C 96% 1.5 mph ESE2.4 kmh ESE 3.0 mph4.8 kmh 29.89 in1012.2 mb 0.00 in0.0 mm 0.00 in0.0 mm 0.06 in1.5 mm
04:00 AM 67.9°F19.9°C 66.7°F19.3°C 96% 0.8 mph E1.3 kmh E 3.0 mph4.8 kmh 29.89 in1012.2 mb 0.01 in0.3 mm 0.00 in0.0 mm 0.06 in1.5 mm
03:55 AM 68.0°F20.0°C 66.8°F19.3°C 96% 0.9 mph E1.4 kmh E 4.0 mph6.4 kmh 29.89 in1012.2 mb 0.01 in0.3 mm 0.00 in0.0 mm 0.06 in1.5 mm
03:50 AM 68.0°F20.0°C 66.8°F19.3°C 96% 1.1 mph NE1.8 kmh NE 4.0 mph6.4 kmh 29.89 in1012.2 mb 0.01 in0.3 mm 0.00 in0.0 mm 0.06 in1.5 mm
03:45 AM 68.0°F20.0°C 66.8°F19.3°C 96% 0.7 mph ENE1.1 kmh ENE 3.0 mph4.8 kmh 29.90 in1012.5 mb 0.02 in0.5 mm 0.00 in0.0 mm 0.06 in1.5 mm
03:40 AM 68.0°F20.0°C 66.8°F19.3°C 96% 0.7 mph ENE1.1 kmh ENE 2.0 mph3.2 kmh 29.90 in1012.5 mb 0.02 in0.5 mm 0.00 in0.0 mm 0.06 in1.5 mm
03:35 AM 68.1°F20.1°C 66.9°F19.4°C 96% 0.8 mph SE1.3 kmh SE 4.0 mph6.4 kmh 29.90 in1012.5 mb 0.02 in0.5 mm 0.00 in0.0 mm 0.06 in1.5 mm
03:30 AM 68.1°F20.1°C 66.9°F19.4°C 96% 1.3 mph SE2.1 kmh SE 4.0 mph6.4 kmh 29.90 in1012.5 mb 0.02 in0.5 mm 0.00 in0.0 mm 0.06 in1.5 mm
03:25 AM 68.1°F20.1°C 66.9°F19.4°C 96% 1.1 mph ESE1.8 kmh ESE 5.0 mph8.0 kmh 29.90 in1012.5 mb 0.02 in0.5 mm 0.00 in0.0 mm 0.06 in1.5 mm
03:20 AM 68.1°F20.1°C 66.9°F19.4°C 96% 1.0 mph E1.6 kmh E 5.0 mph8.0 kmh 29.90 in1012.5 mb 0.03 in0.8 mm 0.00 in0.0 mm 0.06 in1.5 mm
03:15 AM 68.2°F20.1°C 67.0°F19.4°C 96% 0.9 mph E1.4 kmh E 5.0 mph8.0 kmh 29.90 in1012.5 mb 0.03 in0.8 mm 0.00 in0.0 mm 0.06 in1.5 mm
03:10 AM 68.2°F20.1°C 67.0°F19.4°C 96% 1.2 mph ENE1.9 kmh ENE 5.0 mph8.0 kmh 29.90 in1012.5 mb 0.03 in0.8 mm 0.00 in0.0 mm 0.06 in1.5 mm
03:05 AM 68.2°F20.1°C 67.0°F19.4°C 96% 0.9 mph ENE1.4 kmh ENE 3.0 mph4.8 kmh 29.90 in1012.5 mb 0.04 in1.0 mm 0.12 in3.0 mm 0.06 in1.5 mm
03:00 AM 68.2°F20.1°C 67.0°F19.4°C 96% 0.8 mph ENE1.3 kmh ENE 4.0 mph6.4 kmh 29.91 in1012.9 mb 0.03 in0.8 mm 0.00 in0.0 mm 0.05 in1.3 mm
02:55 AM 68.2°F20.1°C 67.0°F19.4°C 96% 1.2 mph ENE1.9 kmh ENE 5.0 mph8.0 kmh 29.91 in1012.9 mb 0.03 in0.8 mm 0.00 in0.0 mm 0.05 in1.3 mm
02:50 AM 68.3°F20.2°C 67.1°F19.5°C 96% 1.3 mph NE2.1 kmh NE 5.0 mph8.0 kmh 29.91 in1012.9 mb 0.03 in0.8 mm 0.12 in3.0 mm 0.05 in1.3 mm
02:45 AM 68.3°F20.2°C 67.1°F19.5°C 96% 0.7 mph ENE1.1 kmh ENE 3.0 mph4.8 kmh 29.91 in1012.9 mb 0.02 in0.5 mm 0.00 in0.0 mm 0.04 in1.0 mm
02:40 AM 68.3°F20.2°C 67.1°F19.5°C 96% 1.1 mph NE1.8 kmh NE 3.0 mph4.8 kmh 29.91 in1012.9 mb 0.02 in0.5 mm 0.00 in0.0 mm 0.04 in1.0 mm
02:35 AM 68.3°F20.2°C 67.1°F19.5°C 96% 1.2 mph NE1.9 kmh NE 3.0 mph4.8 kmh 29.91 in1012.9 mb 0.03 in0.8 mm 0.00 in0.0 mm 0.04 in1.0 mm
02:30 AM 68.3°F20.2°C 67.1°F19.5°C 96% 1.1 mph NE1.8 kmh NE 3.0 mph4.8 kmh 29.91 in1012.9 mb 0.03 in0.8 mm 0.00 in0.0 mm 0.04 in1.0 mm
02:25 AM 68.3°F20.2°C 67.1°F19.5°C 96% 1.0 mph NE1.6 kmh NE 3.0 mph4.8 kmh 29.91 in1012.9 mb 0.03 in0.8 mm 0.12 in3.0 mm 0.04 in1.0 mm
02:20 AM 68.5°F20.3°C 67.3°F19.6°C 96% 0.8 mph NE1.3 kmh NE 6.0 mph9.7 kmh 29.91 in1012.9 mb 0.02 in0.5 mm 0.00 in0.0 mm 0.03 in0.8 mm
02:15 AM 68.5°F20.3°C 67.3°F19.6°C 96% 1.4 mph ENE2.3 kmh ENE 6.0 mph9.7 kmh 29.91 in1012.9 mb 0.03 in0.8 mm 0.00 in0.0 mm 0.03 in0.8 mm
02:10 AM 68.6°F20.3°C 67.1°F19.5°C 95% 1.5 mph NE2.4 kmh NE 6.0 mph9.7 kmh 29.91 in1012.9 mb 0.03 in0.8 mm 0.12 in3.0 mm 0.03 in0.8 mm
02:05 AM 68.7°F20.4°C 67.2°F19.6°C 95% 1.4 mph ENE2.3 kmh ENE 7.0 mph11.3 kmh 29.91 in1012.9 mb 0.02 in0.5 mm 0.00 in0.0 mm 0.02 in0.5 mm
02:00 AM 68.7°F20.4°C 67.2°F19.6°C 95% 1.7 mph ENE2.7 kmh ENE 7.0 mph11.3 kmh 29.91 in1012.9 mb 0.02 in0.5 mm 0.00 in0.0 mm 0.02 in0.5 mm
01:55 AM 68.8°F20.4°C 67.3°F19.6°C 95% 1.5 mph NE2.4 kmh NE 4.0 mph6.4 kmh 29.91 in1012.9 mb 0.02 in0.5 mm 0.00 in0.0 mm 0.02 in0.5 mm
01:50 AM 68.9°F20.5°C 67.4°F19.7°C 95% 1.1 mph ENE1.8 kmh ENE 4.0 mph6.4 kmh 29.91 in1012.9 mb 0.02 in0.5 mm 0.00 in0.0 mm 0.02 in0.5 mm
01:45 AM 68.9°F20.5°C 67.4°F19.7°C 95% 1.7 mph ENE2.7 kmh ENE 5.0 mph8.0 kmh 29.91 in1012.9 mb 0.02 in0.5 mm 0.00 in0.0 mm 0.02 in0.5 mm
01:40 AM 68.9°F20.5°C 67.4°F19.7°C 95% 1.6 mph E2.6 kmh E 5.0 mph8.0 kmh 29.91 in1012.9 mb 0.02 in0.5 mm 0.12 in3.0 mm 0.02 in0.5 mm
01:35 AM 69.0°F20.6°C 67.5°F19.7°C 95% 1.1 mph ENE1.8 kmh ENE 3.0 mph4.8 kmh 29.91 in1012.9 mb 0.01 in0.3 mm 0.00 in0.0 mm 0.01 in0.3 mm
01:30 AM 69.0°F20.6°C 67.5°F19.7°C 95% 1.1 mph ENE1.8 kmh ENE 3.0 mph4.8 kmh 29.91 in1012.9 mb 0.01 in0.3 mm 0.00 in0.0 mm 0.01 in0.3 mm
01:25 AM 68.9°F20.5°C 67.4°F19.7°C 95% 1.2 mph ENE1.9 kmh ENE 3.0 mph4.8 kmh 29.91 in1012.9 mb 0.01 in0.3 mm 0.00 in0.0 mm 0.01 in0.3 mm
01:20 AM 69.0°F20.6°C 67.5°F19.7°C 95% 0.9 mph E1.4 kmh E 4.0 mph6.4 kmh 29.90 in1012.5 mb 0.01 in0.3 mm 0.12 in3.0 mm 0.01 in0.3 mm
01:15 AM 69.0°F20.6°C 67.5°F19.7°C 95% 1.4 mph ESE2.3 kmh ESE 4.0 mph6.4 kmh 29.91 in1012.9 mb 0.00 in0.0 mm 0.00 in0.0 mm 0.00 in0.0 mm
01:10 AM 69.1°F20.6°C 67.3°F19.6°C 94% 1.4 mph E2.3 kmh E 5.0 mph8.0 kmh 29.91 in1012.9 mb 0.00 in0.0 mm 0.00 in0.0 mm 0.00 in0.0 mm
01:05 AM 69.2°F20.7°C 67.4°F19.7°C 94% 1.6 mph E2.6 kmh E 5.0 mph8.0 kmh 29.91 in1012.9 mb 0.00 in0.0 mm 0.00 in0.0 mm 0.00 in0.0 mm
01:00 AM 69.3°F20.7°C 67.5°F19.7°C 94% 1.4 mph E2.3 kmh E 4.0 mph6.4 kmh 29.91 in1012.9 mb 0.00 in0.0 mm 0.00 in0.0 mm 0.00 in0.0 mm
12:55 AM 69.4°F20.8°C 67.6°F19.8°C 94% 0.8 mph SE1.3 kmh SE 5.0 mph8.0 kmh 29.91 in1012.9 mb 0.00 in0.0 mm 0.00 in0.0 mm 0.00 in0.0 mm
12:50 AM 69.5°F20.8°C 67.7°F19.8°C 94% 1.7 mph ESE2.7 kmh ESE 5.0 mph8.0 kmh 29.91 in1012.9 mb 0.00 in0.0 mm 0.00 in0.0 mm 0.00 in0.0 mm
12:45 AM 69.5°F20.8°C 67.7°F19.8°C 94% 1.6 mph ESE2.6 kmh ESE 4.0 mph6.4 kmh 29.91 in1012.9 mb 0.00 in0.0 mm 0.00 in0.0 mm 0.00 in0.0 mm
12:40 AM 69.5°F20.8°C 67.7°F19.8°C 94% 1.8 mph SE2.9 kmh SE 5.0 mph8.0 kmh 29.90 in1012.5 mb 0.00 in0.0 mm 0.00 in0.0 mm 0.00 in0.0 mm
12:35 AM 69.7°F20.9°C 67.9°F19.9°C 94% 1.9 mph SE3.1 kmh SE 6.0 mph9.7 kmh 29.90 in1012.5 mb 0.00 in0.0 mm 0.00 in0.0 mm 0.00 in0.0 mm
12:30 AM 69.6°F20.9°C 67.8°F19.9°C 94% 1.9 mph SE3.1 kmh SE 6.0 mph9.7 kmh 29.90 in1012.5 mb 0.00 in0.0 mm 0.00 in0.0 mm 0.00 in0.0 mm
12:25 AM 69.6°F20.9°C 67.8°F19.9°C 94% 1.8 mph SE2.9 kmh SE 5.0 mph8.0 kmh 29.90 in1012.5 mb 0.00 in0.0 mm 0.00 in0.0 mm 0.00 in0.0 mm
12:20 AM 69.6°F20.9°C 67.8°F19.9°C 94% 1.6 mph SE2.6 kmh SE 5.0 mph8.0 kmh 29.90 in1012.5 mb 0.00 in0.0 mm 0.00 in0.0 mm 0.00 in0.0 mm
12:15 AM 69.6°F20.9°C 67.8°F19.9°C 94% 1.8 mph SE2.9 kmh SE 5.0 mph8.0 kmh 29.90 in1012.5 mb 0.00 in0.0 mm 0.00 in0.0 mm 0.00 in0.0 mm
12:10 AM 69.6°F20.9°C 67.8°F19.9°C 94% 1.5 mph ESE2.4 kmh ESE 6.0 mph9.7 kmh 29.90 in1012.5 mb 0.00 in0.0 mm 0.00 in0.0 mm 0.00 in0.0 mm
12:05 AM 69.7°F20.9°C 67.6°F19.8°C 93% 1.8 mph E2.9 kmh E 6.0 mph9.7 kmh 29.90 in1012.5 mb 0.00 in0.0 mm 0.00 in0.0 mm 0.00 in0.0 mm
12:00 AM 69.8°F21.0°C 67.7°F19.8°C 93% 1.5 mph ESE2.4 kmh ESE 5.0 mph8.0 kmh 29.90 in1012.5 mb 0.00 in0.0 mm 0.00 in0.0 mm 3.64 in92.5 mm